sensor_id;sensor_type;location;lat;lon;timestamp;pressure;altitude;pressure_sealevel;temperature
71630;BMP280;59479;51.902;8.212;2023-02-10T00:00:03;102924.16;;;4.64
71630;BMP280;59479;51.902;8.212;2023-02-10T00:02:29;102921.78;;;4.65
71630;BMP280;59479;51.902;8.212;2023-02-10T00:04:55;102908.66;;;4.68
71630;BMP280;59479;51.902;8.212;2023-02-10T00:07:20;102915.00;;;4.63
71630;BMP280;59479;51.902;8.212;2023-02-10T00:09:45;102912.97;;;4.57
71630;BMP280;59479;51.902;8.212;2023-02-10T00:12:11;102915.16;;;4.66
71630;BMP280;59479;51.902;8.212;2023-02-10T00:14:37;102923.75;;;4.71
71630;BMP280;59479;51.902;8.212;2023-02-10T00:17:03;102919.97;;;4.63
71630;BMP280;59479;51.902;8.212;2023-02-10T00:19:29;102933.38;;;4.65
71630;BMP280;59479;51.902;8.212;2023-02-10T00:21:57;102927.03;;;4.70
71630;BMP280;59479;51.902;8.212;2023-02-10T00:24:22;102935.88;;;4.65
71630;BMP280;59479;51.902;8.212;2023-02-10T00:26:47;102921.88;;;4.67
71630;BMP280;59479;51.902;8.212;2023-02-10T00:29:13;102928.31;;;4.63
71630;BMP280;59479;51.902;8.212;2023-02-10T00:31:39;102926.84;;;4.67
71630;BMP280;59479;51.902;8.212;2023-02-10T00:34:05;102921.69;;;4.64
71630;BMP280;59479;51.902;8.212;2023-02-10T00:36:31;102922.91;;;4.70
71630;BMP280;59479;51.902;8.212;2023-02-10T00:38:56;102928.59;;;4.68
71630;BMP280;59479;51.902;8.212;2023-02-10T00:41:23;102930.66;;;4.75
71630;BMP280;59479;51.902;8.212;2023-02-10T00:43:49;102930.84;;;4.78
71630;BMP280;59479;51.902;8.212;2023-02-10T00:46:16;102920.59;;;4.73
71630;BMP280;59479;51.902;8.212;2023-02-10T00:48:42;102937.72;;;4.82
71630;BMP280;59479;51.902;8.212;2023-02-10T00:51:08;102933.41;;;4.79
71630;BMP280;59479;51.902;8.212;2023-02-10T00:53:34;102934.28;;;4.80
71630;BMP280;59479;51.902;8.212;2023-02-10T00:55:59;102932.66;;;4.80
71630;BMP280;59479;51.902;8.212;2023-02-10T00:58:25;102930.47;;;4.72
71630;BMP280;59479;51.902;8.212;2023-02-10T01:00:50;102944.81;;;4.76
71630;BMP280;59479;51.902;8.212;2023-02-10T01:03:16;102943.38;;;4.79
71630;BMP280;59479;51.902;8.212;2023-02-10T01:05:41;102941.75;;;4.80
71630;BMP280;59479;51.902;8.212;2023-02-10T01:08:07;102947.69;;;4.82
71630;BMP280;59479;51.902;8.212;2023-02-10T01:10:33;102947.09;;;4.86
71630;BMP280;59479;51.902;8.212;2023-02-10T01:13:00;102951.97;;;4.84
71630;BMP280;59479;51.902;8.212;2023-02-10T01:15:26;102949.09;;;4.91
71630;BMP280;59479;51.902;8.212;2023-02-10T01:17:52;102948.72;;;4.85
71630;BMP280;59479;51.902;8.212;2023-02-10T01:20:17;102955.59;;;4.89
71630;BMP280;59479;51.902;8.212;2023-02-10T01:22:42;102948.06;;;4.88
71630;BMP280;59479;51.902;8.212;2023-02-10T01:25:08;102952.84;;;4.85
71630;BMP280;59479;51.902;8.212;2023-02-10T01:27:33;102953.91;;;4.88
71630;BMP280;59479;51.902;8.212;2023-02-10T01:29:58;102960.78;;;4.92
71630;BMP280;59479;51.902;8.212;2023-02-10T01:32:24;102955.69;;;4.91
71630;BMP280;59479;51.902;8.212;2023-02-10T01:34:49;102964.53;;;4.86
71630;BMP280;59479;51.902;8.212;2023-02-10T01:37:14;102967.03;;;4.86
71630;BMP280;59479;51.902;8.212;2023-02-10T01:39:40;102966.25;;;4.87
71630;BMP280;59479;51.902;8.212;2023-02-10T01:42:05;102963.69;;;4.85
71630;BMP280;59479;51.902;8.212;2023-02-10T01:46:57;102962.63;;;4.82
71630;BMP280;59479;51.902;8.212;2023-02-10T01:49:29;102949.47;;;4.84
71630;BMP280;59479;51.902;8.212;2023-02-10T01:52:03;102956.28;;;4.87
71630;BMP280;59479;51.902;8.212;2023-02-10T01:54:35;102953.72;;;4.85
71630;BMP280;59479;51.902;8.212;2023-02-10T01:57:03;102953.91;;;4.88
71630;BMP280;59479;51.902;8.212;2023-02-10T01:59:32;102958.19;;;4.91
71630;BMP280;59479;51.902;8.212;2023-02-10T02:01:58;102956.47;;;4.90
71630;BMP280;59479;51.902;8.212;2023-02-10T02:04:26;102971.25;;;4.87
71630;BMP280;59479;51.902;8.212;2023-02-10T02:06:52;102969.59;;;4.87
71630;BMP280;59479;51.902;8.212;2023-02-10T02:09:17;102965.22;;;4.83
71630;BMP280;59479;51.902;8.212;2023-02-10T02:11:57;102965.50;;;4.88
71630;BMP280;59479;51.902;8.212;2023-02-10T02:17:29;102966.59;;;4.93
71630;BMP280;59479;51.902;8.212;2023-02-10T02:34:05;102976.66;;;4.80
71630;BMP280;59479;51.902;8.212;2023-02-10T02:36:48;102975.31;;;4.72
71630;BMP280;59479;51.902;8.212;2023-02-10T02:39:14;102980.09;;;4.69
71630;BMP280;59479;51.902;8.212;2023-02-10T02:41:39;102977.22;;;4.76
71630;BMP280;59479;51.902;8.212;2023-02-10T02:44:05;102980.31;;;4.72
71630;BMP280;59479;51.902;8.212;2023-02-10T02:49:08;102987.34;;;4.64
71630;BMP280;59479;51.902;8.212;2023-02-10T02:51:57;102976.47;;;4.64
71630;BMP280;59479;51.902;8.212;2023-02-10T02:54:45;102977.06;;;4.60
71630;BMP280;59479;51.902;8.212;2023-02-10T02:57:48;102975.84;;;4.54
71630;BMP280;59479;51.902;8.212;2023-02-10T03:00:26;102975.00;;;4.53
71630;BMP280;59479;51.902;8.212;2023-02-10T03:02:53;102977.69;;;4.56
71630;BMP280;59479;51.902;8.212;2023-02-10T03:05:20;102975.75;;;4.52
71630;BMP280;59479;51.902;8.212;2023-02-10T03:07:46;102968.50;;;4.42
71630;BMP280;59479;51.902;8.212;2023-02-10T03:10:12;102974.81;;;4.37
71630;BMP280;59479;51.902;8.212;2023-02-10T03:12:37;102966.94;;;4.44
71630;BMP280;59479;51.902;8.212;2023-02-10T03:15:02;102967.44;;;4.39
71630;BMP280;59479;51.902;8.212;2023-02-10T03:17:28;102962.75;;;4.43
71630;BMP280;59479;51.902;8.212;2023-02-10T03:19:53;102971.47;;;4.37
71630;BMP280;59479;51.902;8.212;2023-02-10T03:22:18;102961.91;;;4.30
71630;BMP280;59479;51.902;8.212;2023-02-10T03:24:44;102964.09;;;4.38
71630;BMP280;59479;51.902;8.212;2023-02-10T03:27:09;102956.53;;;4.37
71630;BMP280;59479;51.902;8.212;2023-02-10T03:29:34;102969.38;;;4.30
71630;BMP280;59479;51.902;8.212;2023-02-10T03:32:00;102962.16;;;4.34
71630;BMP280;59479;51.902;8.212;2023-02-10T03:34:27;102969.09;;;4.38
71630;BMP280;59479;51.902;8.212;2023-02-10T03:36:53;102954.53;;;4.31
71630;BMP280;59479;51.902;8.212;2023-02-10T03:39:18;102954.53;;;4.31
71630;BMP280;59479;51.902;8.212;2023-02-10T03:41:44;102960.06;;;4.27
71630;BMP280;59479;51.902;8.212;2023-02-10T03:44:09;102965.16;;;4.29
71630;BMP280;59479;51.902;8.212;2023-02-10T03:46:34;102966.09;;;4.31
71630;BMP280;59479;51.902;8.212;2023-02-10T03:49:05;102964.41;;;4.30
71630;BMP280;59479;51.902;8.212;2023-02-10T03:51:33;102965.66;;;4.23
71630;BMP280;59479;51.902;8.212;2023-02-10T03:53:58;102964.69;;;4.21
71630;BMP280;59479;51.902;8.212;2023-02-10T03:56:24;102969.00;;;4.24
71630;BMP280;59479;51.902;8.212;2023-02-10T03:58:49;102969.47;;;4.31
71630;BMP280;59479;51.902;8.212;2023-02-10T04:01:16;102972.38;;;4.24
71630;BMP280;59479;51.902;8.212;2023-02-10T04:03:42;102967.44;;;4.26
71630;BMP280;59479;51.902;8.212;2023-02-10T04:06:08;102972.16;;;4.21
71630;BMP280;59479;51.902;8.212;2023-02-10T04:08:35;102972.28;;;4.23
71630;BMP280;59479;51.902;8.212;2023-02-10T04:11:00;102976.19;;;4.19
71630;BMP280;59479;51.902;8.212;2023-02-10T04:13:26;102972.38;;;4.24
71630;BMP280;59479;51.902;8.212;2023-02-10T04:16:05;102978.00;;;4.22
71630;BMP280;59479;51.902;8.212;2023-02-10T04:18:32;102967.94;;;4.20
71630;BMP280;59479;51.902;8.212;2023-02-10T04:20:58;102969.28;;;4.16
71630;BMP280;59479;51.902;8.212;2023-02-10T04:23:26;102967.38;;;4.12
71630;BMP280;59479;51.902;8.212;2023-02-10T04:25:51;102972.91;;;4.08
71630;BMP280;59479;51.902;8.212;2023-02-10T04:28:17;102970.84;;;4.14
71630;BMP280;59479;51.902;8.212;2023-02-10T04:30:42;102980.78;;;4.14
71630;BMP280;59479;51.902;8.212;2023-02-10T04:33:08;102976.66;;;4.14
71630;BMP280;59479;51.902;8.212;2023-02-10T04:35:33;102971.97;;;4.18
71630;BMP280;59479;51.902;8.212;2023-02-10T04:37:58;102974.38;;;4.17
71630;BMP280;59479;51.902;8.212;2023-02-10T04:40:24;102975.06;;;4.15
71630;BMP280;59479;51.902;8.212;2023-02-10T04:42:49;102975.81;;;4.14
71630;BMP280;59479;51.902;8.212;2023-02-10T04:45:14;102974.66;;;4.09
71630;BMP280;59479;51.902;8.212;2023-02-10T04:47:40;102980.69;;;4.12
71630;BMP280;59479;51.902;8.212;2023-02-10T04:50:05;102984.06;;;4.00
71630;BMP280;59479;51.902;8.212;2023-02-10T04:52:31;102972.56;;;4.02
71630;BMP280;59479;51.902;8.212;2023-02-10T04:54:56;102975.81;;;4.01
71630;BMP280;59479;51.902;8.212;2023-02-10T04:57:22;102973.41;;;4.02
71630;BMP280;59479;51.902;8.212;2023-02-10T04:59:47;102974.84;;;3.99
71630;BMP280;59479;51.902;8.212;2023-02-10T05:02:12;102971.22;;;4.07
71630;BMP280;59479;51.902;8.212;2023-02-10T05:04:38;102975.34;;;4.06
71630;BMP280;59479;51.902;8.212;2023-02-10T05:07:03;102980.88;;;4.02
71630;BMP280;59479;51.902;8.212;2023-02-10T05:09:28;102980.31;;;4.06
71630;BMP280;59479;51.902;8.212;2023-02-10T05:11:54;102984.63;;;4.09
71630;BMP280;59479;51.902;8.212;2023-02-10T05:14:19;102991.97;;;4.07
71630;BMP280;59479;51.902;8.212;2023-02-10T05:16:44;102990.28;;;4.06
71630;BMP280;59479;51.902;8.212;2023-02-10T05:19:10;102990.38;;;3.95
71630;BMP280;59479;51.902;8.212;2023-02-10T05:21:35;102992.28;;;3.99
71630;BMP280;59479;51.902;8.212;2023-02-10T05:24:01;102988.84;;;3.97
71630;BMP280;59479;51.902;8.212;2023-02-10T05:26:27;102988.03;;;3.98
71630;BMP280;59479;51.902;8.212;2023-02-10T05:28:52;103002.41;;;4.02
71630;BMP280;59479;51.902;8.212;2023-02-10T05:31:18;103006.16;;;3.95
71630;BMP280;59479;51.902;8.212;2023-02-10T05:33:43;103004.13;;;4.03
71630;BMP280;59479;51.902;8.212;2023-02-10T05:36:09;103011.22;;;3.97
71630;BMP280;59479;51.902;8.212;2023-02-10T05:38:34;103015.81;;;4.04
71630;BMP280;59479;51.902;8.212;2023-02-10T05:41:00;103008.63;;;3.95
71630;BMP280;59479;51.902;8.212;2023-02-10T05:43:25;103017.53;;;3.92
71630;BMP280;59479;51.902;8.212;2023-02-10T05:45:51;103019.81;;;3.89
71630;BMP280;59479;51.902;8.212;2023-02-10T05:48:16;103024.81;;;3.89
71630;BMP280;59479;51.902;8.212;2023-02-10T05:50:41;103033.50;;;3.82
71630;BMP280;59479;51.902;8.212;2023-02-10T05:53:07;103032.94;;;3.86
71630;BMP280;59479;51.902;8.212;2023-02-10T05:55:32;103035.34;;;3.85
71630;BMP280;59479;51.902;8.212;2023-02-10T05:57:57;103032.06;;;3.86
71630;BMP280;59479;51.902;8.212;2023-02-10T06:00:23;103034.97;;;3.92
71630;BMP280;59479;51.902;8.212;2023-02-10T06:02:48;103042.25;;;4.02
71630;BMP280;59479;51.902;8.212;2023-02-10T06:05:17;103042.16;;;4.00
71630;BMP280;59479;51.902;8.212;2023-02-10T06:07:45;103038.13;;;4.02
71630;BMP280;59479;51.902;8.212;2023-02-10T06:10:11;103041.28;;;4.00
71630;BMP280;59479;51.902;8.212;2023-02-10T06:12:48;103039.38;;;4.09
71630;BMP280;59479;51.902;8.212;2023-02-10T06:15:16;103039.75;;;4.02
71630;BMP280;59479;51.902;8.212;2023-02-10T06:17:41;103044.03;;;4.04
71630;BMP280;59479;51.902;8.212;2023-02-10T06:20:10;103043.28;;;4.05
71630;BMP280;59479;51.902;8.212;2023-02-10T06:22:35;103050.09;;;4.08
71630;BMP280;59479;51.902;8.212;2023-02-10T06:25:00;103054.50;;;4.12
71630;BMP280;59479;51.902;8.212;2023-02-10T06:27:26;103058.31;;;4.07
71630;BMP280;59479;51.902;8.212;2023-02-10T06:29:51;103069.03;;;4.06
71630;BMP280;59479;51.902;8.212;2023-02-10T06:32:16;103064.16;;;4.07
71630;BMP280;59479;51.902;8.212;2023-02-10T06:34:42;103065.78;;;4.07
71630;BMP280;59479;51.902;8.212;2023-02-10T06:37:07;103071.06;;;4.11
71630;BMP280;59479;51.902;8.212;2023-02-10T06:39:33;103064.66;;;4.15
71630;BMP280;59479;51.902;8.212;2023-02-10T06:41:58;103079.94;;;4.08
71630;BMP280;59479;51.902;8.212;2023-02-10T06:44:24;103080.03;;;4.09
71630;BMP280;59479;51.902;8.212;2023-02-10T06:46:50;103081.78;;;4.10
71630;BMP280;59479;51.902;8.212;2023-02-10T06:49:15;103082.44;;;4.08
71630;BMP280;59479;51.902;8.212;2023-02-10T06:51:40;103082.63;;;4.11
71630;BMP280;59479;51.902;8.212;2023-02-10T06:54:06;103079.66;;;4.16
71630;BMP280;59479;51.902;8.212;2023-02-10T06:56:31;103089.16;;;4.09
71630;BMP280;59479;51.902;8.212;2023-02-10T06:58:56;103090.09;;;4.11
71630;BMP280;59479;51.902;8.212;2023-02-10T07:01:22;103090.28;;;4.01
71630;BMP280;59479;51.902;8.212;2023-02-10T07:03:47;103092.88;;;4.02
71630;BMP280;59479;51.902;8.212;2023-02-10T07:06:12;103087.53;;;3.96
71630;BMP280;59479;51.902;8.212;2023-02-10T07:08:38;103092.94;;;3.91
71630;BMP280;59479;51.902;8.212;2023-02-10T07:11:03;103090.28;;;4.01
71630;BMP280;59479;51.902;8.212;2023-02-10T07:13:28;103093.34;;;3.97
71630;BMP280;59479;51.902;8.212;2023-02-10T07:15:54;103090.69;;;4.07
71630;BMP280;59479;51.902;8.212;2023-02-10T07:18:19;103093.28;;;4.08
71630;BMP280;59479;51.902;8.212;2023-02-10T07:20:45;103093.38;;;4.10
71630;BMP280;59479;51.902;8.212;2023-02-10T07:23:10;103092.97;;;4.04
71630;BMP280;59479;51.902;8.212;2023-02-10T07:25:35;103098.69;;;4.03
71630;BMP280;59479;51.902;8.212;2023-02-10T07:28:01;103082.84;;;4.14
71630;BMP280;59479;51.902;8.212;2023-02-10T07:30:26;103089.56;;;4.15
71630;BMP280;59479;51.902;8.212;2023-02-10T07:32:52;103091.84;;;4.12
71630;BMP280;59479;51.902;8.212;2023-02-10T07:35:17;103091.47;;;4.18
71630;BMP280;59479;51.902;8.212;2023-02-10T07:37:42;103085.34;;;4.26
71630;BMP280;59479;51.902;8.212;2023-02-10T07:40:09;103089.06;;;4.20
71630;BMP280;59479;51.902;8.212;2023-02-10T07:42:34;103092.13;;;4.16
71630;BMP280;59479;51.902;8.212;2023-02-10T07:45:00;103085.34;;;4.26
71630;BMP280;59479;51.902;8.212;2023-02-10T07:47:26;103089.66;;;4.29
71630;BMP280;59479;51.902;8.212;2023-02-10T07:49:51;103086.19;;;4.27
71630;BMP280;59479;51.902;8.212;2023-02-10T07:52:19;103094.34;;;4.24
71630;BMP280;59479;51.902;8.212;2023-02-10T07:54:45;103100.66;;;4.19
71630;BMP280;59479;51.902;8.212;2023-02-10T07:57:10;103103.16;;;4.19
71630;BMP280;59479;51.902;8.212;2023-02-10T07:59:35;103099.69;;;4.30
71630;BMP280;59479;51.902;8.212;2023-02-10T08:02:01;103097.97;;;4.29
71630;BMP280;59479;51.902;8.212;2023-02-10T08:04:26;103103.53;;;4.25
71630;BMP280;59479;51.902;8.212;2023-02-10T08:06:51;103101.13;;;4.27
71630;BMP280;59479;51.902;8.212;2023-02-10T08:09:17;103104.59;;;4.29
71630;BMP280;59479;51.902;8.212;2023-02-10T08:11:43;103102.41;;;4.33
71630;BMP280;59479;51.902;8.212;2023-02-10T08:14:08;103115.81;;;4.35
71630;BMP280;59479;51.902;8.212;2023-02-10T08:16:33;103115.81;;;4.35
71630;BMP280;59479;51.902;8.212;2023-02-10T08:18:59;103115.03;;;4.36
71630;BMP280;59479;51.902;8.212;2023-02-10T08:21:24;103109.59;;;4.42
71630;BMP280;59479;51.902;8.212;2023-02-10T08:23:51;103116.00;;;4.38
71630;BMP280;59479;51.902;8.212;2023-02-10T08:26:20;103116.09;;;4.40
71630;BMP280;59479;51.902;8.212;2023-02-10T08:28:45;103119.81;;;4.33
71630;BMP280;59479;51.902;8.212;2023-02-10T08:31:11;103119.03;;;4.34
71630;BMP280;59479;51.902;8.212;2023-02-10T08:33:37;103117.34;;;4.33
71630;BMP280;59479;51.902;8.212;2023-02-10T08:36:08;103123.84;;;4.31
71630;BMP280;59479;51.902;8.212;2023-02-10T08:38:34;103130.75;;;4.35
71630;BMP280;59479;51.902;8.212;2023-02-10T08:41:00;103129.00;;;4.34
71630;BMP280;59479;51.902;8.212;2023-02-10T08:43:25;103130.34;;;4.29
71630;BMP280;59479;51.902;8.212;2023-02-10T08:45:51;103130.34;;;4.29
71630;BMP280;59479;51.902;8.212;2023-02-10T08:48:17;103125.97;;;4.38
71630;BMP280;59479;51.902;8.212;2023-02-10T08:50:42;103119.31;;;4.26
71630;BMP280;59479;51.902;8.212;2023-02-10T08:53:07;103123.44;;;4.25
71630;BMP280;59479;51.902;8.212;2023-02-10T08:55:33;103126.41;;;4.20
71630;BMP280;59479;51.902;8.212;2023-02-10T08:57:58;103127.78;;;4.28
71630;BMP280;59479;51.902;8.212;2023-02-10T09:00:24;103141.28;;;4.31
71630;BMP280;59479;51.902;8.212;2023-02-10T09:02:49;103132.81;;;4.29
71630;BMP280;59479;51.902;8.212;2023-02-10T09:05:16;103130.94;;;4.38
71630;BMP280;59479;51.902;8.212;2023-02-10T09:07:41;103129.88;;;4.35
71630;BMP280;59479;51.902;8.212;2023-02-10T09:10:09;103131.16;;;4.41
71630;BMP280;59479;51.902;8.212;2023-02-10T09:12:35;103136.03;;;4.40
71630;BMP280;59479;51.902;8.212;2023-02-10T09:15:01;103132.00;;;4.42
71630;BMP280;59479;51.902;8.212;2023-02-10T09:17:26;103137.81;;;4.42
71630;BMP280;59479;51.902;8.212;2023-02-10T09:19:51;103135.06;;;4.38
71630;BMP280;59479;51.902;8.212;2023-02-10T09:22:17;103140.22;;;4.41
71630;BMP280;59479;51.902;8.212;2023-02-10T09:24:42;103136.88;;;4.53
71630;BMP280;59479;51.902;8.212;2023-02-10T09:27:11;103141.47;;;4.47
71630;BMP280;59479;51.902;8.212;2023-02-10T09:29:37;103139.94;;;4.49
71630;BMP280;59479;51.902;8.212;2023-02-10T09:32:02;103148.75;;;4.44
71630;BMP280;59479;51.902;8.212;2023-02-10T09:34:28;103148.41;;;4.51
71630;BMP280;59479;51.902;8.212;2023-02-10T09:36:55;103147.91;;;4.57
71630;BMP280;59479;51.902;8.212;2023-02-10T09:39:22;103144.91;;;4.49
71630;BMP280;59479;51.902;8.212;2023-02-10T09:41:57;103144.72;;;4.59
71630;BMP280;59479;51.902;8.212;2023-02-10T09:44:29;103142.84;;;4.68
71630;BMP280;59479;51.902;8.212;2023-02-10T09:47:31;103152.72;;;4.66
71630;BMP280;59479;51.902;8.212;2023-02-10T09:50:20;103163.81;;;4.71
71630;BMP280;59479;51.902;8.212;2023-02-10T09:55:45;103154.16;;;4.63
71630;BMP280;59479;51.902;8.212;2023-02-10T10:00:44;103148.19;;;4.74
71630;BMP280;59479;51.902;8.212;2023-02-10T10:03:19;103155.09;;;4.78
71630;BMP280;59479;51.902;8.212;2023-02-10T10:11:25;103156.31;;;4.84
71630;BMP280;59479;51.902;8.212;2023-02-10T10:13:51;103146.66;;;4.89
71630;BMP280;59479;51.902;8.212;2023-02-10T10:16:46;103148.47;;;4.91
71630;BMP280;59479;51.902;8.212;2023-02-10T10:19:32;103158.50;;;4.93
71630;BMP280;59479;51.902;8.212;2023-02-10T10:30:48;103151.22;;;5.21
71630;BMP280;59479;51.902;8.212;2023-02-10T10:35:46;103158.09;;;5.25
71630;BMP280;59479;51.902;8.212;2023-02-10T10:38:20;103158.94;;;5.26
71630;BMP280;59479;51.902;8.212;2023-02-10T10:40:47;103156.53;;;5.27
71630;BMP280;59479;51.902;8.212;2023-02-10T10:43:24;103153.31;;;5.28
71630;BMP280;59479;51.902;8.212;2023-02-10T10:45:56;103156.09;;;5.33
71630;BMP280;59479;51.902;8.212;2023-02-10T10:48:24;103148.03;;;5.24
71630;BMP280;59479;51.902;8.212;2023-02-10T10:50:57;103155.50;;;5.24
71630;BMP280;59479;51.902;8.212;2023-02-10T10:53:50;103147.47;;;5.28
71630;BMP280;59479;51.902;8.212;2023-02-10T10:56:44;103142.63;;;5.31
71630;BMP280;59479;51.902;8.212;2023-02-10T11:01:50;103141.38;;;5.37
71630;BMP280;59479;51.902;8.212;2023-02-10T11:04:24;103139.44;;;5.46
71630;BMP280;59479;51.902;8.212;2023-02-10T11:06:52;103135.41;;;5.48
71630;BMP280;59479;51.902;8.212;2023-02-10T11:09:20;103137.91;;;5.48
71630;BMP280;59479;51.902;8.212;2023-02-10T11:11:46;103125.28;;;5.59
71630;BMP280;59479;51.902;8.212;2023-02-10T11:16:50;103114.00;;;5.66
71630;BMP280;59479;51.902;8.212;2023-02-10T11:19:38;103112.19;;;5.76
71630;BMP280;59479;51.902;8.212;2023-02-10T11:22:14;103120.22;;;5.72
71630;BMP280;59479;51.902;8.212;2023-02-10T11:24:49;103113.03;;;5.77
71630;BMP280;59479;51.902;8.212;2023-02-10T11:27:15;103106.31;;;5.76
71630;BMP280;59479;51.902;8.212;2023-02-10T11:29:48;103109.78;;;5.78
71630;BMP280;59479;51.902;8.212;2023-02-10T11:32:19;103110.63;;;5.92
71630;BMP280;59479;51.902;8.212;2023-02-10T11:34:46;103102.09;;;5.89
71630;BMP280;59479;51.902;8.212;2023-02-10T11:37:30;103088.34;;;5.95
71630;BMP280;59479;51.902;8.212;2023-02-10T11:39:59;103096.38;;;6.04
71630;BMP280;59479;51.902;8.212;2023-02-10T11:42:30;103086.88;;;5.99
71630;BMP280;59479;51.902;8.212;2023-02-10T11:45:17;103084.66;;;6.03
71630;BMP280;59479;51.902;8.212;2023-02-10T11:47:44;103090.66;;;5.92
71630;BMP280;59479;51.902;8.212;2023-02-10T11:50:26;103089.66;;;6.03
71630;BMP280;59479;51.902;8.212;2023-02-10T11:52:51;103094.03;;;6.07
71630;BMP280;59479;51.902;8.212;2023-02-10T11:55:18;103088.53;;;6.13
71630;BMP280;59479;51.902;8.212;2023-02-10T11:58:00;103097.22;;;6.19
71630;BMP280;59479;51.902;8.212;2023-02-10T12:01:20;103089.66;;;6.18
71630;BMP280;59479;51.902;8.212;2023-02-10T12:09:29;103084.53;;;6.45
71630;BMP280;59479;51.902;8.212;2023-02-10T12:14:36;103071.69;;;6.39
71630;BMP280;59479;51.902;8.212;2023-02-10T12:25:17;103066.50;;;6.50
71630;BMP280;59479;51.902;8.212;2023-02-10T12:30:49;103061.41;;;6.49
71630;BMP280;59479;51.902;8.212;2023-02-10T12:38:52;103043.06;;;6.63
71630;BMP280;59479;51.902;8.212;2023-02-10T12:41:42;103046.66;;;6.68
71630;BMP280;59479;51.902;8.212;2023-02-10T12:44:20;103043.19;;;6.66
71630;BMP280;59479;51.902;8.212;2023-02-10T12:46:59;103040.69;;;6.66
71630;BMP280;59479;51.902;8.212;2023-02-10T12:54:55;103034.38;;;6.72
71630;BMP280;59479;51.902;8.212;2023-02-10T12:57:33;103038.19;;;6.66
71630;BMP280;59479;51.902;8.212;2023-02-10T13:00:04;103026.19;;;6.74
71630;BMP280;59479;51.902;8.212;2023-02-10T13:02:32;103025.41;;;6.75
71630;BMP280;59479;51.902;8.212;2023-02-10T13:05:08;103024.94;;;6.67
71630;BMP280;59479;51.902;8.212;2023-02-10T13:07:48;103010.69;;;6.66
71630;BMP280;59479;51.902;8.212;2023-02-10T13:10:25;103012.50;;;6.68
71630;BMP280;59479;51.902;8.212;2023-02-10T13:12:52;103010.41;;;6.75
71630;BMP280;59479;51.902;8.212;2023-02-10T13:15:40;102995.19;;;6.71
71630;BMP280;59479;51.902;8.212;2023-02-10T13:18:26;103003.16;;;6.80
71630;BMP280;59479;51.902;8.212;2023-02-10T13:21:06;103003.69;;;6.90
71630;BMP280;59479;51.902;8.212;2023-02-10T13:23:51;103009.41;;;6.88
71630;BMP280;59479;51.902;8.212;2023-02-10T13:29:07;102996.97;;;7.05
71630;BMP280;59479;51.902;8.212;2023-02-10T13:34:52;103003.94;;;6.95
71630;BMP280;59479;51.902;8.212;2023-02-10T13:37:38;102999.50;;;6.89
71630;BMP280;59479;51.902;8.212;2023-02-10T13:40:23;102995.44;;;6.91
71630;BMP280;59479;51.902;8.212;2023-02-10T13:43:17;102999.47;;;7.05
71630;BMP280;59479;51.902;8.212;2023-02-10T13:45:50;102984.19;;;6.99
71630;BMP280;59479;51.902;8.212;2023-02-10T13:48:29;102980.72;;;7.13
71630;BMP280;59479;51.902;8.212;2023-02-10T13:51:00;102978.88;;;7.09
71630;BMP280;59479;51.902;8.212;2023-02-10T14:04:00;102962.53;;;7.00
71630;BMP280;59479;51.902;8.212;2023-02-10T14:06:38;102966.72;;;7.16
71630;BMP280;59479;51.902;8.212;2023-02-10T14:09:59;102968.75;;;7.23
71630;BMP280;59479;51.902;8.212;2023-02-10T14:11:51;102977.28;;;7.27
71630;BMP280;59479;51.902;8.212;2023-02-10T14:16:46;102976.34;;;7.25
71630;BMP280;59479;51.902;8.212;2023-02-10T14:19:36;102967.91;;;7.23
71630;BMP280;59479;51.902;8.212;2023-02-10T14:22:04;102968.59;;;7.20
71630;BMP280;59479;51.902;8.212;2023-02-10T14:24:35;102970.41;;;7.23
71630;BMP280;59479;51.902;8.212;2023-02-10T14:27:05;102964.16;;;7.31
71630;BMP280;59479;51.902;8.212;2023-02-10T14:29:33;102961.06;;;7.36
71630;BMP280;59479;51.902;8.212;2023-02-10T14:32:01;102960.34;;;7.39
71630;BMP280;59479;51.902;8.212;2023-02-10T14:34:33;102962.41;;;7.30
71630;BMP280;59479;51.902;8.212;2023-02-10T14:37:10;102958.66;;;7.22
71630;BMP280;59479;51.902;8.212;2023-02-10T14:39:37;102945.31;;;7.21
71630;BMP280;59479;51.902;8.212;2023-02-10T14:42:04;102943.03;;;7.26
71630;BMP280;59479;51.902;8.212;2023-02-10T14:44:33;102945.75;;;7.30
71630;BMP280;59479;51.902;8.212;2023-02-10T14:46:59;102951.84;;;7.35
71630;BMP280;59479;51.902;8.212;2023-02-10T14:49:25;102944.94;;;7.47
71630;BMP280;59479;51.902;8.212;2023-02-10T14:51:51;102936.13;;;7.38
71630;BMP280;59479;51.902;8.212;2023-02-10T14:57:00;102938.63;;;7.38
71630;BMP280;59479;51.902;8.212;2023-02-10T14:59:30;102934.84;;;7.46
71630;BMP280;59479;51.902;8.212;2023-02-10T15:02:04;102939.56;;;7.40
71630;BMP280;59479;51.902;8.212;2023-02-10T15:04:29;102937.50;;;7.49
71630;BMP280;59479;51.902;8.212;2023-02-10T15:06:58;102931.22;;;7.56
71630;BMP280;59479;51.902;8.212;2023-02-10T15:09:29;102931.22;;;7.56
71630;BMP280;59479;51.902;8.212;2023-02-10T15:12:00;102926.22;;;7.56
71630;BMP280;59479;51.902;8.212;2023-02-10T15:15:27;102926.00;;;7.52
71630;BMP280;59479;51.902;8.212;2023-02-10T15:17:57;102917.97;;;7.42
71630;BMP280;59479;51.902;8.212;2023-02-10T15:20:27;102922.72;;;7.53
71630;BMP280;59479;51.902;8.212;2023-02-10T15:27:52;102927.13;;;7.41
71630;BMP280;59479;51.902;8.212;2023-02-10T15:30:28;102933.25;;;7.30
71630;BMP280;59479;51.902;8.212;2023-02-10T15:32:56;102947.50;;;7.15
71630;BMP280;59479;51.902;8.212;2023-02-10T15:35:23;102944.75;;;7.27
71630;BMP280;59479;51.902;8.212;2023-02-10T15:37:54;102932.03;;;7.22
71630;BMP280;59479;51.902;8.212;2023-02-10T15:40:29;102936.19;;;6.90
71630;BMP280;59479;51.902;8.212;2023-02-10T15:42:57;102932.13;;;7.08
71630;BMP280;59479;51.902;8.212;2023-02-10T15:45:24;102930.88;;;7.16
71630;BMP280;59479;51.902;8.212;2023-02-10T15:47:59;102932.56;;;7.17
71630;BMP280;59479;51.902;8.212;2023-02-10T15:50:28;102919.81;;;7.28
71630;BMP280;59479;51.902;8.212;2023-02-10T15:52:54;102918.47;;;7.35
71630;BMP280;59479;51.902;8.212;2023-02-10T15:55:22;102915.13;;;7.34
71630;BMP280;59479;51.902;8.212;2023-02-10T15:57:49;102903.88;;;7.44
71630;BMP280;59479;51.902;8.212;2023-02-10T16:02:47;102917.22;;;7.27
71630;BMP280;59479;51.902;8.212;2023-02-10T16:05:12;102906.59;;;7.31
71630;BMP280;59479;51.902;8.212;2023-02-10T16:07:38;102900.31;;;7.39